createdAt,value
2023-05-11T00:00:02.125Z,94368.00
2023-05-11T00:01:02.175Z,94366.00
2023-05-11T00:02:02.273Z,94364.00
2023-05-11T00:03:02.385Z,94364.00
2023-05-11T00:04:02.439Z,94364.00
2023-05-11T00:05:02.417Z,94366.00
2023-05-11T00:06:02.453Z,94362.00
2023-05-11T00:07:02.499Z,94366.00
2023-05-11T00:08:02.591Z,94360.00
2023-05-11T00:09:02.607Z,94364.00
2023-05-11T00:10:02.643Z,94362.00
2023-05-11T00:11:02.687Z,94362.00
2023-05-11T00:12:02.721Z,94362.00
2023-05-11T00:13:02.807Z,94362.00
2023-05-11T00:14:02.874Z,94362.00
2023-05-11T00:15:02.899Z,94360.00
2023-05-11T00:16:02.956Z,94356.00
2023-05-11T00:17:02.989Z,94360.00
2023-05-11T00:18:03.071Z,94354.00
2023-05-11T00:19:03.271Z,94354.00
2023-05-11T00:20:03.107Z,94354.00
2023-05-11T00:21:03.189Z,94358.00
2023-05-11T00:22:03.232Z,94354.00
2023-05-11T00:23:03.395Z,94354.00
2023-05-11T00:24:03.331Z,94354.00
2023-05-11T00:25:03.400Z,94354.00
2023-05-11T00:26:03.404Z,94354.00
2023-05-11T00:27:03.473Z,94354.00
2023-05-11T00:28:03.500Z,94356.00
2023-05-11T00:29:03.577Z,94350.00
2023-05-11T00:30:03.600Z,94352.00
2023-05-11T00:31:03.662Z,94350.00
2023-05-11T00:32:03.679Z,94350.00
2023-05-11T00:33:03.743Z,94352.00
2023-05-11T00:34:03.816Z,94348.00
2023-05-11T00:35:03.841Z,94348.00
2023-05-11T00:36:03.871Z,94348.00
2023-05-11T00:37:03.934Z,94348.00
2023-05-11T00:38:04.023Z,94346.00
2023-05-11T00:39:04.038Z,94346.00
2023-05-11T00:40:04.093Z,94346.00
2023-05-11T00:41:04.137Z,94346.00
2023-05-11T00:42:04.233Z,94344.00
2023-05-11T00:43:04.267Z,94340.00
2023-05-11T00:44:04.354Z,94340.00
2023-05-11T00:45:04.345Z,94342.00
2023-05-11T00:46:04.469Z,94340.00
2023-05-11T00:47:04.613Z,94342.00
2023-05-11T00:48:04.585Z,94342.00
2023-05-11T00:49:04.569Z,94344.00
2023-05-11T00:50:04.629Z,94342.00
2023-05-11T00:51:04.665Z,94338.00
2023-05-11T00:52:04.715Z,94340.00
2023-05-11T00:53:04.774Z,94338.00
2023-05-11T00:54:04.853Z,94338.00
2023-05-11T00:55:04.909Z,94338.00
2023-05-11T00:56:04.972Z,94338.00
2023-05-11T00:57:04.982Z,94338.00
2023-05-11T00:58:05.052Z,94336.00
2023-05-11T00:59:05.102Z,94336.00
2023-05-11T01:00:05.229Z,94336.00
2023-05-11T01:01:05.252Z,94338.00
2023-05-11T01:02:05.258Z,94336.00
2023-05-11T01:03:05.291Z,94338.00
2023-05-11T01:04:05.238Z,94336.00
2023-05-11T01:05:05.291Z,94338.00
2023-05-11T01:06:05.352Z,94342.00
2023-05-11T01:07:05.397Z,94340.00
2023-05-11T01:08:05.421Z,94338.00
2023-05-11T01:09:05.639Z,94340.00
2023-05-11T01:10:05.501Z,94340.00
2023-05-11T01:11:05.568Z,94340.00
2023-05-11T01:12:05.634Z,94340.00
2023-05-11T01:13:05.663Z,94340.00
2023-05-11T01:14:05.657Z,94340.00
2023-05-11T01:15:05.685Z,94340.00
2023-05-11T01:16:05.798Z,94338.00
2023-05-11T01:17:05.786Z,94338.00
2023-05-11T01:18:05.921Z,94338.00
2023-05-11T01:19:05.896Z,94338.00
2023-05-11T01:20:05.941Z,94338.00
2023-05-11T01:21:05.944Z,94338.00
2023-05-11T01:22:05.961Z,94342.00
2023-05-11T01:23:05.980Z,94340.00
2023-05-11T01:24:05.992Z,94342.00
2023-05-11T01:25:06.040Z,94342.00
2023-05-11T01:26:06.072Z,94342.00
2023-05-11T01:27:06.105Z,94342.00
2023-05-11T01:28:06.092Z,94342.00
2023-05-11T01:29:06.126Z,94336.00
2023-05-11T01:30:06.170Z,94340.00
2023-05-11T01:31:06.172Z,94336.00
2023-05-11T01:32:06.277Z,94336.00
2023-05-11T01:33:06.235Z,94334.00
2023-05-11T01:34:06.250Z,94332.00
2023-05-11T01:35:06.289Z,94328.00
2023-05-11T01:36:06.288Z,94330.00
2023-05-11T01:37:06.337Z,94330.00
2023-05-11T01:38:06.352Z,94330.00
2023-05-11T01:39:06.356Z,94330.00
2023-05-11T01:40:06.465Z,94332.00
2023-05-11T01:41:06.415Z,94332.00
2023-05-11T01:42:06.424Z,94332.00
2023-05-11T01:43:06.521Z,94334.00
2023-05-11T01:44:06.488Z,94334.00
2023-05-11T01:45:06.490Z,94334.00
2023-05-11T01:46:06.516Z,94332.00
2023-05-11T01:47:06.535Z,94334.00
2023-05-11T01:48:06.625Z,94332.00
2023-05-11T01:49:06.590Z,94332.00
2023-05-11T01:50:06.636Z,94332.00
2023-05-11T01:51:06.642Z,94330.00
2023-05-11T01:52:06.658Z,94332.00
2023-05-11T01:53:06.677Z,94330.00
2023-05-11T01:54:06.688Z,94334.00
2023-05-11T01:55:06.722Z,94334.00
2023-05-11T01:56:06.776Z,94336.00
2023-05-11T01:57:06.830Z,94334.00
2023-05-11T01:58:06.817Z,94334.00
2023-05-11T01:59:06.895Z,94330.00
2023-05-11T02:00:06.956Z,94330.00
2023-05-11T02:01:06.994Z,94330.00
2023-05-11T02:02:07.003Z,94330.00
2023-05-11T02:03:07.047Z,94330.00
2023-05-11T02:04:07.032Z,94328.00
2023-05-11T02:05:07.064Z,94328.00
2023-05-11T02:06:07.100Z,94330.00
2023-05-11T02:07:07.124Z,94332.00
2023-05-11T02:08:07.199Z,94330.00
2023-05-11T02:09:07.206Z,94330.00
2023-05-11T02:10:07.228Z,94332.00
2023-05-11T02:11:07.253Z,94330.00
2023-05-11T02:12:07.299Z,94332.00
2023-05-11T02:13:07.323Z,94332.00
2023-05-11T02:14:07.348Z,94330.00
2023-05-11T02:15:07.396Z,94330.00
2023-05-11T02:16:07.444Z,94332.00
2023-05-11T02:17:07.447Z,94332.00
2023-05-11T02:18:07.461Z,94326.00
2023-05-11T02:19:07.563Z,94324.00
2023-05-11T02:20:07.524Z,94330.00
2023-05-11T02:21:07.520Z,94324.00
2023-05-11T02:22:07.531Z,94324.00
2023-05-11T02:23:07.543Z,94326.00
2023-05-11T02:24:07.561Z,94328.00
2023-05-11T02:25:07.566Z,94328.00
2023-05-11T02:26:07.580Z,94326.00
2023-05-11T02:27:07.579Z,94324.00
2023-05-11T02:28:07.596Z,94326.00
2023-05-11T02:29:07.617Z,94326.00
2023-05-11T02:30:07.615Z,94326.00
2023-05-11T02:31:07.690Z,94328.00
2023-05-11T02:32:07.648Z,94328.00
2023-05-11T02:33:07.721Z,94328.00
2023-05-11T02:34:07.726Z,94328.00
2023-05-11T02:35:07.726Z,94326.00
2023-05-11T02:36:07.708Z,94326.00
2023-05-11T02:37:07.732Z,94326.00
2023-05-11T02:38:07.768Z,94324.00
2023-05-11T02:39:07.787Z,94326.00
2023-05-11T02:40:07.783Z,94324.00
2023-05-11T02:41:07.807Z,94324.00
2023-05-11T02:42:07.830Z,94322.00
2023-05-11T02:43:07.874Z,94324.00
2023-05-11T02:44:07.871Z,94324.00
2023-05-11T02:45:07.879Z,94322.00
2023-05-11T02:46:07.896Z,94321.00
2023-05-11T02:47:07.954Z,94322.00
2023-05-11T02:48:08.049Z,94322.00
2023-05-11T02:49:07.943Z,94322.00
2023-05-11T02:50:07.986Z,94324.00
2023-05-11T02:51:08.049Z,94321.00
2023-05-11T02:52:08.051Z,94319.00
2023-05-11T02:53:08.072Z,94317.00
2023-05-11T02:54:08.120Z,94313.00
2023-05-11T02:55:08.129Z,94313.00
2023-05-11T02:56:08.133Z,94313.00
2023-05-11T02:57:08.133Z,94313.00
2023-05-11T02:58:08.226Z,94313.00
2023-05-11T02:59:08.210Z,94315.00
2023-05-11T03:00:08.158Z,94313.00
2023-05-11T03:01:08.246Z,94311.00
2023-05-11T03:02:08.325Z,94309.00
2023-05-11T03:03:08.287Z,94307.00
2023-05-11T03:04:08.182Z,94303.00
2023-05-11T03:05:08.269Z,94301.00
2023-05-11T03:06:08.185Z,94305.00
2023-05-11T03:07:08.172Z,94307.00
2023-05-11T03:08:08.183Z,94307.00
2023-05-11T03:09:10.194Z,94309.00
2023-05-11T03:10:08.228Z,94307.00
2023-05-11T03:11:08.224Z,94307.00
2023-05-11T03:12:08.217Z,94305.00
2023-05-11T03:13:08.228Z,94303.00
2023-05-11T03:14:08.240Z,94303.00
2023-05-11T03:15:08.247Z,94305.00
2023-05-11T03:16:08.284Z,94303.00
2023-05-11T03:17:08.271Z,94305.00
2023-05-11T03:18:08.310Z,94307.00
2023-05-11T03:19:08.272Z,94307.00
2023-05-11T03:20:08.262Z,94305.00
2023-05-11T03:21:08.267Z,94307.00
2023-05-11T03:22:08.264Z,94303.00
2023-05-11T03:23:08.270Z,94305.00
2023-05-11T03:24:08.255Z,94305.00
2023-05-11T03:25:08.286Z,94303.00
2023-05-11T03:26:08.260Z,94301.00
2023-05-11T03:27:08.254Z,94299.00
2023-05-11T03:28:08.278Z,94301.00
2023-05-11T03:29:08.294Z,94299.00
2023-05-11T03:30:08.294Z,94303.00
2023-05-11T03:31:08.282Z,94299.00
2023-05-11T03:32:08.308Z,94303.00
2023-05-11T03:33:08.283Z,94303.00
2023-05-11T03:34:08.271Z,94301.00
2023-05-11T03:35:08.281Z,94303.00
2023-05-11T03:36:08.283Z,94299.00
2023-05-11T03:37:08.288Z,94299.00
2023-05-11T03:38:08.271Z,94297.00
2023-05-11T03:39:08.266Z,94297.00
2023-05-11T03:40:08.254Z,94297.00
2023-05-11T03:41:08.261Z,94297.00
2023-05-11T03:42:08.262Z,94297.00
2023-05-11T03:43:08.278Z,94299.00
2023-05-11T03:44:08.282Z,94299.00
2023-05-11T03:45:08.259Z,94297.00
2023-05-11T03:46:08.295Z,94297.00
2023-05-11T03:47:08.373Z,94295.00
2023-05-11T03:48:08.274Z,94295.00
2023-05-11T03:49:08.798Z,94295.00
2023-05-11T03:50:08.287Z,94295.00
2023-05-11T03:51:08.291Z,94293.00
2023-05-11T03:52:08.274Z,94297.00
2023-05-11T03:53:08.282Z,94297.00
2023-05-11T03:54:08.281Z,94293.00
2023-05-11T03:55:08.268Z,94299.00
2023-05-11T03:56:08.319Z,94297.00
2023-05-11T03:57:08.285Z,94297.00
2023-05-11T03:58:08.349Z,94293.00
2023-05-11T03:59:08.303Z,94293.00
2023-05-11T04:00:08.325Z,94289.00
2023-05-11T04:01:08.319Z,94291.00
2023-05-11T04:02:08.340Z,94293.00
2023-05-11T04:03:08.371Z,94291.00
2023-05-11T04:04:08.374Z,94293.00
2023-05-11T04:05:08.322Z,94291.00
2023-05-11T04:06:08.336Z,94291.00
2023-05-11T04:07:08.378Z,94289.00
2023-05-11T04:08:08.426Z,94291.00
2023-05-11T04:09:08.340Z,94293.00
2023-05-11T04:10:08.365Z,94293.00
2023-05-11T04:11:08.341Z,94293.00
2023-05-11T04:12:08.337Z,94291.00
2023-05-11T04:13:08.363Z,94291.00
2023-05-11T04:14:08.347Z,94287.00
2023-05-11T04:15:08.349Z,94287.00
2023-05-11T04:16:08.350Z,94287.00
2023-05-11T04:17:08.363Z,94287.00
2023-05-11T04:18:08.409Z,94291.00
2023-05-11T04:19:08.407Z,94289.00
2023-05-11T04:20:08.450Z,94293.00
2023-05-11T04:21:08.336Z,94293.00
2023-05-11T04:22:08.353Z,94293.00
2023-05-11T04:23:10.306Z,94291.00
2023-05-11T04:24:08.353Z,94291.00
2023-05-11T04:25:08.788Z,94285.00
2023-05-11T04:26:08.358Z,94283.00
2023-05-11T04:27:08.336Z,94285.00
2023-05-11T04:28:08.337Z,94287.00
2023-05-11T04:29:08.360Z,94289.00
2023-05-11T04:30:08.375Z,94289.00
2023-05-11T04:31:08.388Z,94289.00
2023-05-11T04:32:08.392Z,94291.00
2023-05-11T04:33:08.445Z,94295.00
2023-05-11T04:34:08.391Z,94295.00
2023-05-11T04:35:08.411Z,94295.00
2023-05-11T04:36:08.408Z,94295.00
2023-05-11T04:37:08.419Z,94295.00
2023-05-11T04:38:08.445Z,94293.00
2023-05-11T04:39:08.452Z,94295.00
2023-05-11T04:40:08.472Z,94293.00
2023-05-11T04:41:08.488Z,94293.00
2023-05-11T04:42:08.486Z,94291.00
2023-05-11T04:43:08.510Z,94293.00
2023-05-11T04:44:08.498Z,94295.00
2023-05-11T04:45:08.488Z,94293.00
2023-05-11T04:46:08.497Z,94295.00
2023-05-11T04:47:08.639Z,94295.00
2023-05-11T04:48:08.560Z,94295.00
2023-05-11T04:49:08.547Z,94297.00
2023-05-11T04:50:08.555Z,94297.00
2023-05-11T04:51:08.536Z,94295.00
2023-05-11T04:52:08.529Z,94297.00
2023-05-11T04:53:08.545Z,94299.00
2023-05-11T04:54:08.551Z,94293.00
2023-05-11T04:55:08.565Z,94301.00
2023-05-11T04:56:08.571Z,94297.00
2023-05-11T04:57:08.594Z,94297.00
2023-05-11T04:58:08.586Z,94299.00
2023-05-11T04:59:08.581Z,94299.00
2023-05-11T05:00:08.721Z,94301.00
2023-05-11T05:01:08.622Z,94299.00
2023-05-11T05:02:08.583Z,94301.00
2023-05-11T05:03:08.621Z,94303.00
2023-05-11T05:04:08.588Z,94305.00
2023-05-11T05:05:08.563Z,94307.00
2023-05-11T05:06:08.574Z,94303.00
2023-05-11T05:07:08.575Z,94311.00
2023-05-11T05:08:08.584Z,94301.00
2023-05-11T05:09:08.598Z,94303.00
2023-05-11T05:10:08.589Z,94303.00
2023-05-11T05:11:08.588Z,94303.00
2023-05-11T05:12:08.595Z,94303.00
2023-05-11T05:13:08.602Z,94305.00
2023-05-11T05:14:08.607Z,94305.00
2023-05-11T05:15:08.595Z,94305.00
2023-05-11T05:16:08.626Z,94305.00
2023-05-11T05:17:08.644Z,94305.00
2023-05-11T05:18:08.658Z,94305.00
2023-05-11T05:19:08.769Z,94309.00
2023-05-11T05:20:08.625Z,94311.00
2023-05-11T05:21:08.628Z,94311.00
2023-05-11T05:22:08.635Z,94307.00
2023-05-11T05:23:08.659Z,94305.00
2023-05-11T05:24:08.615Z,94305.00
2023-05-11T05:25:08.654Z,94307.00
2023-05-11T05:26:08.637Z,94307.00
2023-05-11T05:27:08.660Z,94315.00
2023-05-11T05:28:08.644Z,94313.00
2023-05-11T05:29:08.653Z,94317.00
2023-05-11T05:30:08.714Z,94313.00
2023-05-11T05:31:08.684Z,94313.00
2023-05-11T05:32:08.658Z,94313.00
2023-05-11T05:33:08.732Z,94315.00
2023-05-11T05:34:08.698Z,94315.00
2023-05-11T05:35:08.743Z,94315.00
2023-05-11T05:36:08.704Z,94319.00
2023-05-11T05:37:08.718Z,94319.00
2023-05-11T05:38:08.701Z,94321.00
2023-05-11T05:39:08.765Z,94322.00
2023-05-11T05:40:08.831Z,94322.00
2023-05-11T05:41:08.872Z,94324.00
2023-05-11T05:42:08.930Z,94309.00
2023-05-11T05:43:08.961Z,94317.00
2023-05-11T05:44:09.038Z,94321.00
2023-05-11T05:45:10.591Z,94330.00
2023-05-11T05:46:09.109Z,94328.00
2023-05-11T05:47:09.084Z,94326.00
2023-05-11T05:48:09.073Z,94324.00
2023-05-11T05:49:09.052Z,94324.00
2023-05-11T05:50:09.091Z,94324.00
2023-05-11T05:51:09.046Z,94322.00
2023-05-11T05:52:09.049Z,94324.00
2023-05-11T05:53:09.088Z,94319.00
2023-05-11T05:54:09.024Z,94322.00
2023-05-11T05:55:09.009Z,94321.00
2023-05-11T05:56:09.033Z,94321.00
2023-05-11T05:57:09.001Z,94321.00
2023-05-11T05:58:08.989Z,94321.00
2023-05-11T05:59:08.992Z,94321.00
2023-05-11T06:00:08.981Z,94321.00
2023-05-11T06:01:08.963Z,94322.00
2023-05-11T06:02:08.955Z,94326.00
2023-05-11T06:03:09.086Z,94326.00
2023-05-11T06:04:09.145Z,94326.00
2023-05-11T06:05:08.935Z,94328.00
2023-05-11T06:06:08.936Z,94330.00
2023-05-11T06:07:08.954Z,94330.00
2023-05-11T06:08:10.539Z,94330.00
2023-05-11T06:09:08.948Z,94334.00
2023-05-11T06:10:08.910Z,94334.00
2023-05-11T06:11:09.267Z,94334.00
2023-05-11T06:12:08.876Z,94332.00
2023-05-11T06:13:08.867Z,94334.00
2023-05-11T06:14:08.865Z,94336.00
2023-05-11T06:15:08.869Z,94334.00
2023-05-11T06:16:08.882Z,94334.00
2023-05-11T06:17:08.846Z,94336.00
2023-05-11T06:18:08.930Z,94336.00
2023-05-11T06:19:08.990Z,94334.00
2023-05-11T06:20:08.910Z,94334.00
2023-05-11T06:21:09.253Z,94336.00
2023-05-11T06:22:08.992Z,94334.00
2023-05-11T06:23:08.999Z,94336.00
2023-05-11T06:24:09.048Z,94334.00
2023-05-11T06:25:09.101Z,94336.00
2023-05-11T06:26:09.126Z,94336.00
2023-05-11T06:27:09.145Z,94338.00
2023-05-11T06:28:09.251Z,94338.00
2023-05-11T06:29:09.238Z,94336.00
2023-05-11T06:30:09.257Z,94332.00
2023-05-11T06:31:09.852Z,94334.00
2023-05-11T06:32:09.466Z,94334.00
2023-05-11T06:33:09.471Z,94334.00
2023-05-11T06:34:09.408Z,94334.00
2023-05-11T06:35:09.394Z,94332.00
2023-05-11T06:36:09.791Z,94336.00
2023-05-11T06:37:09.436Z,94336.00
2023-05-11T06:38:09.520Z,94340.00
2023-05-11T06:39:09.496Z,94342.00
2023-05-11T06:40:09.556Z,94344.00
2023-05-11T06:41:09.771Z,94344.00
2023-05-11T06:42:09.531Z,94346.00
2023-05-11T06:43:09.562Z,94346.00
2023-05-11T06:44:09.566Z,94346.00
2023-05-11T06:45:10.277Z,94344.00
2023-05-11T06:46:09.797Z,94344.00
2023-05-11T06:47:09.610Z,94342.00
2023-05-11T06:48:09.643Z,94344.00
2023-05-11T06:49:09.650Z,94342.00
2023-05-11T06:50:09.663Z,94338.00
2023-05-11T06:51:09.772Z,94338.00
2023-05-11T06:52:09.670Z,94340.00
2023-05-11T06:53:09.709Z,94338.00
2023-05-11T06:54:09.727Z,94338.00
2023-05-11T06:55:09.737Z,94338.00
2023-05-11T06:56:09.792Z,94336.00
2023-05-11T06:57:09.766Z,94340.00
2023-05-11T06:58:09.751Z,94340.00
2023-05-11T06:59:09.779Z,94342.00
2023-05-11T07:00:09.767Z,94342.00
2023-05-11T07:01:10.294Z,94338.00
2023-05-11T07:02:09.790Z,94340.00
2023-05-11T07:03:09.781Z,94340.00
2023-05-11T07:04:09.844Z,94340.00
2023-05-11T07:05:09.869Z,94340.00
2023-05-11T07:06:09.811Z,94340.00
2023-05-11T07:07:09.803Z,94340.00
2023-05-11T07:08:09.818Z,94340.00
2023-05-11T07:09:09.825Z,94340.00
2023-05-11T07:10:09.856Z,94338.00
2023-05-11T07:11:09.870Z,94336.00
2023-05-11T07:12:09.830Z,94338.00
2023-05-11T07:13:09.856Z,94338.00
2023-05-11T07:14:09.869Z,94338.00
2023-05-11T07:15:09.857Z,94336.00
2023-05-11T07:16:10.271Z,94338.00
2023-05-11T07:17:09.973Z,94338.00
2023-05-11T07:18:09.978Z,94336.00
2023-05-11T07:19:09.959Z,94338.00
2023-05-11T07:20:09.892Z,94338.00
2023-05-11T07:21:09.926Z,94338.00
2023-05-11T07:22:11.841Z,94338.00
2023-05-11T07:23:09.925Z,94338.00
2023-05-11T07:24:09.895Z,94338.00
2023-05-11T07:25:09.955Z,94338.00
2023-05-11T07:26:10.306Z,94328.00
2023-05-11T07:27:10.785Z,94330.00
2023-05-11T07:28:09.879Z,94326.00
2023-05-11T07:29:09.872Z,94324.00
2023-05-11T07:30:09.867Z,94324.00
2023-05-11T07:31:09.931Z,94322.00
2023-05-11T07:32:09.855Z,94330.00
2023-05-11T07:33:09.928Z,94324.00
2023-05-11T07:34:09.845Z,94330.00
2023-05-11T07:35:09.852Z,94328.00
2023-05-11T07:36:09.829Z,94332.00
2023-05-11T07:37:09.858Z,94334.00
2023-05-11T07:38:09.828Z,94334.00
2023-05-11T07:39:09.830Z,94334.00
2023-05-11T07:40:09.807Z,94334.00
2023-05-11T07:41:12.314Z,94334.00
2023-05-11T07:42:09.787Z,94334.00
2023-05-11T07:43:09.808Z,94334.00
2023-05-11T07:44:09.773Z,94330.00
2023-05-11T07:45:09.797Z,94326.00
2023-05-11T07:46:09.780Z,94330.00
2023-05-11T07:47:09.747Z,94330.00
2023-05-11T07:48:09.819Z,94330.00
2023-05-11T07:49:17.007Z,94332.00
2023-05-11T07:50:10.743Z,94330.00
2023-05-11T07:51:09.803Z,94332.00
2023-05-11T07:52:09.742Z,94326.00
2023-05-11T07:53:09.741Z,94332.00
2023-05-11T07:54:09.872Z,94336.00
2023-05-11T07:55:09.710Z,94332.00
2023-05-11T07:56:09.841Z,94330.00
2023-05-11T07:57:09.684Z,94334.00
2023-05-11T07:58:09.703Z,94334.00
2023-05-11T07:59:09.720Z,94332.00
2023-05-11T08:00:10.871Z,94334.00
2023-05-11T08:01:09.811Z,94334.00
2023-05-11T08:02:12.235Z,94332.00
2023-05-11T08:03:09.670Z,94330.00
2023-05-11T08:04:09.628Z,94330.00
2023-05-11T08:05:09.638Z,94326.00
2023-05-11T08:06:09.684Z,94326.00
2023-05-11T08:07:09.608Z,94322.00
2023-05-11T08:08:09.607Z,94324.00
2023-05-11T08:09:09.609Z,94324.00
2023-05-11T08:10:09.585Z,94330.00
2023-05-11T08:11:09.587Z,94328.00
2023-05-11T08:12:09.659Z,94330.00
2023-05-11T08:13:09.593Z,94332.00
2023-05-11T08:14:09.560Z,94330.00
2023-05-11T08:15:09.560Z,94328.00
2023-05-11T08:16:09.873Z,94328.00
2023-05-11T08:17:09.539Z,94326.00
2023-05-11T08:18:09.645Z,94328.00
2023-05-11T08:19:09.628Z,94330.00
2023-05-11T08:20:09.864Z,94322.00
2023-05-11T08:21:09.539Z,94319.00
2023-05-11T08:22:09.548Z,94319.00
2023-05-11T08:23:09.497Z,94321.00
2023-05-11T08:24:09.535Z,94321.00
2023-05-11T08:25:09.488Z,94319.00
2023-05-11T08:26:09.837Z,94319.00
2023-05-11T08:27:09.479Z,94315.00
2023-05-11T08:28:09.471Z,94317.00
2023-05-11T08:29:09.480Z,94315.00
2023-05-11T08:30:11.497Z,94315.00
2023-05-11T08:31:09.572Z,94313.00
2023-05-11T08:32:09.679Z,94313.00
2023-05-11T08:33:29.077Z,94315.00
2023-05-11T08:34:18.217Z,94317.00
2023-05-11T08:35:10.743Z,94317.00
2023-05-11T08:36:09.849Z,94315.00
2023-05-11T08:37:09.653Z,94309.00
2023-05-11T08:38:09.661Z,94313.00
2023-05-11T08:39:09.635Z,94313.00
2023-05-11T08:40:09.616Z,94311.00
2023-05-11T08:41:09.854Z,94313.00
2023-05-11T08:42:09.618Z,94309.00
2023-05-11T08:43:09.611Z,94311.00
2023-05-11T08:44:09.620Z,94307.00
2023-05-11T08:45:09.586Z,94309.00
2023-05-11T08:46:09.661Z,94311.00
2023-05-11T08:47:21.151Z,94309.00
2023-05-11T08:48:10.594Z,94305.00
2023-05-11T08:49:09.569Z,94309.00
2023-05-11T08:50:09.572Z,94307.00
2023-05-11T08:51:09.564Z,94307.00
2023-05-11T08:52:09.821Z,94303.00
2023-05-11T08:53:09.580Z,94303.00
2023-05-11T08:54:09.541Z,94303.00
2023-05-11T08:55:09.529Z,94303.00
2023-05-11T08:56:09.853Z,94307.00
2023-05-11T08:57:09.526Z,94305.00
2023-05-11T08:58:09.487Z,94307.00
2023-05-11T08:59:09.477Z,94303.00
2023-05-11T09:00:09.511Z,94305.00
2023-05-11T09:01:09.486Z,94303.00
2023-05-11T09:02:09.828Z,94303.00
2023-05-11T09:03:09.639Z,94303.00
2023-05-11T09:04:09.622Z,94303.00
2023-05-11T09:05:09.706Z,94301.00
2023-05-11T09:06:09.733Z,94301.00
2023-05-11T09:07:09.837Z,94303.00
2023-05-11T09:08:09.835Z,94303.00
2023-05-11T09:09:09.883Z,94301.00
2023-05-11T09:10:11.554Z,94299.00
2023-05-11T09:11:09.922Z,94301.00
2023-05-11T09:12:10.331Z,94297.00
2023-05-11T09:13:09.909Z,94297.00
2023-05-11T09:14:09.894Z,94299.00
2023-05-11T09:15:09.880Z,94299.00
2023-05-11T09:16:19.792Z,94301.00
2023-05-11T09:17:11.066Z,94301.00
2023-05-11T09:18:09.874Z,94303.00
2023-05-11T09:19:09.980Z,94303.00
2023-05-11T09:20:09.872Z,94301.00
2023-05-11T09:21:09.836Z,94303.00
2023-05-11T09:22:09.841Z,94303.00
2023-05-11T09:23:09.815Z,94301.00
2023-05-11T09:24:09.819Z,94301.00
2023-05-11T09:25:09.835Z,94303.00
2023-05-11T09:26:09.821Z,94303.00
2023-05-11T09:27:09.889Z,94303.00
2023-05-11T09:28:15.908Z,94303.00
2023-05-11T09:29:10.825Z,94299.00
2023-05-11T09:30:09.831Z,94297.00
2023-05-11T09:31:09.818Z,94299.00
2023-05-11T09:32:09.864Z,94311.00
2023-05-11T09:33:09.849Z,94307.00
2023-05-11T09:34:09.760Z,94307.00
2023-05-11T09:35:10.344Z,94307.00
2023-05-11T09:36:09.734Z,94305.00
2023-05-11T09:37:09.835Z,94305.00
2023-05-11T09:38:09.759Z,94305.00
2023-05-11T09:39:15.316Z,94307.00
2023-05-11T09:40:26.193Z,94305.00
2023-05-11T09:41:10.700Z,94305.00
2023-05-11T09:42:09.702Z,94305.00
2023-05-11T09:43:09.724Z,94313.00
2023-05-11T09:44:09.692Z,94305.00
2023-05-11T09:45:09.669Z,94305.00
2023-05-11T09:46:09.742Z,94303.00
2023-05-11T09:47:09.849Z,94303.00
2023-05-11T09:48:09.791Z,94299.00
2023-05-11T09:49:09.678Z,94301.00
2023-05-11T09:50:09.649Z,94301.00
2023-05-11T09:51:09.627Z,94303.00
2023-05-11T09:52:09.847Z,94303.00
2023-05-11T09:53:09.651Z,94303.00
2023-05-11T09:54:09.618Z,94305.00
2023-05-11T09:55:09.602Z,94305.00
2023-05-11T09:56:09.608Z,94305.00
2023-05-11T09:57:09.619Z,94303.00
2023-05-11T09:58:09.575Z,94301.00
2023-05-11T09:59:09.594Z,94305.00
2023-05-11T10:00:09.560Z,94305.00
2023-05-11T10:01:09.625Z,94307.00
2023-05-11T10:02:09.554Z,94309.00
2023-05-11T10:03:09.683Z,94309.00
2023-05-11T10:04:23.034Z,94309.00
2023-05-11T10:05:10.553Z,94307.00
2023-05-11T10:06:09.533Z,94307.00
2023-05-11T10:07:09.553Z,94309.00
2023-05-11T10:08:09.503Z,94305.00
2023-05-11T10:09:09.499Z,94305.00
2023-05-11T10:10:09.502Z,94305.00
2023-05-11T10:11:09.495Z,94303.00
2023-05-11T10:12:09.481Z,94307.00
2023-05-11T10:13:09.490Z,94301.00
2023-05-11T10:14:09.507Z,94303.00
2023-05-11T10:15:09.523Z,94305.00
2023-05-11T10:16:09.560Z,94305.00
2023-05-11T10:17:09.468Z,94305.00
2023-05-11T10:18:09.582Z,94303.00
2023-05-11T10:19:09.772Z,94305.00
2023-05-11T10:20:09.498Z,94293.00
2023-05-11T10:21:09.544Z,94297.00
2023-05-11T10:22:09.635Z,94295.00
2023-05-11T10:23:09.589Z,94295.00
2023-05-11T10:24:09.615Z,94295.00
2023-05-11T10:25:09.599Z,94295.00
2023-05-11T10:26:09.615Z,94289.00
2023-05-11T10:27:09.752Z,94287.00
2023-05-11T10:28:09.626Z,94285.00
2023-05-11T10:29:09.618Z,94285.00
2023-05-11T10:30:09.626Z,94285.00
2023-05-11T10:31:09.627Z,94283.00
2023-05-11T10:32:09.788Z,94283.00
2023-05-11T10:33:09.698Z,94277.00
2023-05-11T10:34:09.622Z,94277.00
2023-05-11T10:35:09.632Z,94275.00
2023-05-11T10:36:09.630Z,94279.00
2023-05-11T10:37:09.654Z,94274.00
2023-05-11T10:38:10.396Z,94275.00
2023-05-11T10:39:09.642Z,94275.00
2023-05-11T10:40:09.644Z,94274.00
2023-05-11T10:41:09.617Z,94274.00
2023-05-11T10:42:09.632Z,94272.00
2023-05-11T10:43:09.653Z,94275.00
2023-05-11T10:44:09.622Z,94275.00
2023-05-11T10:45:09.647Z,94274.00
2023-05-11T10:46:09.663Z,94274.00
2023-05-11T10:47:09.670Z,94274.00
2023-05-11T10:48:09.684Z,94275.00
2023-05-11T10:49:09.614Z,94272.00
2023-05-11T10:50:09.637Z,94272.00
2023-05-11T10:51:09.776Z,94270.00
2023-05-11T10:52:09.647Z,94270.00
2023-05-11T10:53:09.631Z,94268.00
2023-05-11T10:54:09.626Z,94272.00
2023-05-11T10:55:09.675Z,94268.00
2023-05-11T10:56:09.627Z,94268.00
2023-05-11T10:57:09.659Z,94266.00
2023-05-11T10:58:09.637Z,94266.00
2023-05-11T10:59:09.661Z,94268.00
2023-05-11T11:00:09.739Z,94264.00
2023-05-11T11:01:09.740Z,94264.00
2023-05-11T11:02:09.651Z,94262.00
2023-05-11T11:03:09.736Z,94262.00
2023-05-11T11:04:09.693Z,94264.00
2023-05-11T11:05:09.712Z,94260.00
2023-05-11T11:06:09.706Z,94260.00
2023-05-11T11:07:09.898Z,94262.00
2023-05-11T11:08:09.689Z,94260.00
2023-05-11T11:09:09.641Z,94260.00
2023-05-11T11:10:09.694Z,94260.00
2023-05-11T11:11:09.652Z,94260.00
2023-05-11T11:12:09.895Z,94256.00
2023-05-11T11:13:09.666Z,94260.00
2023-05-11T11:14:09.684Z,94260.00
2023-05-11T11:15:09.662Z,94260.00
2023-05-11T11:16:09.645Z,94260.00
2023-05-11T11:17:09.980Z,94266.00
2023-05-11T11:18:09.710Z,94268.00
2023-05-11T11:19:09.772Z,94266.00
2023-05-11T11:20:09.656Z,94268.00
2023-05-11T11:21:09.669Z,94264.00
2023-05-11T11:22:09.891Z,94264.00
2023-05-11T11:23:09.656Z,94264.00
2023-05-11T11:24:09.676Z,94262.00
2023-05-11T11:25:09.675Z,94260.00
2023-05-11T11:26:09.706Z,94260.00
2023-05-11T11:27:09.724Z,94258.00
2023-05-11T11:28:09.747Z,94256.00
2023-05-11T11:29:09.768Z,94256.00
2023-05-11T11:30:09.747Z,94256.00
2023-05-11T11:31:09.806Z,94256.00
2023-05-11T11:32:09.781Z,94258.00
2023-05-11T11:33:09.869Z,94256.00
2023-05-11T11:34:09.798Z,94256.00
2023-05-11T11:35:09.771Z,94256.00
2023-05-11T11:36:09.783Z,94252.00
2023-05-11T11:37:09.857Z,94252.00
2023-05-11T11:38:09.826Z,94246.00
2023-05-11T11:39:09.842Z,94246.00
2023-05-11T11:40:15.309Z,94242.00
2023-05-11T11:41:10.844Z,94242.00
2023-05-11T11:42:09.836Z,94240.00
2023-05-11T11:43:09.802Z,94246.00
2023-05-11T11:44:09.804Z,94248.00